TimeCDT,TemperatureF,Dew PointF,Humidity,Sea Level PressureIn,VisibilityMPH,Wind Direction,Wind SpeedMPH,Gust SpeedMPH,PrecipitationIn,Events,Conditions,WindDirDegrees,DateUTC
12:15 AM,59.0,59.0,100,29.89,7.0,SSE,6.9,-,N/A,,Overcast,150,2012-10-03 05:15:00
12:35 AM,58.6,58.6,100,29.89,10.0,SSE,6.9,-,N/A,,Overcast,160,2012-10-03 05:35:00
12:55 AM,58.6,58.6,100,29.90,7.0,SSE,6.9,-,N/A,,Overcast,160,2012-10-03 05:55:00
1:15 AM,58.8,58.8,100,29.90,7.0,SSE,5.8,-,N/A,,Overcast,160,2012-10-03 06:15:00
1:35 AM,58.6,58.6,100,29.91,7.0,South,4.6,-,N/A,,Overcast,170,2012-10-03 06:35:00
1:55 AM,58.6,58.6,100,29.92,7.0,South,6.9,-,N/A,,Overcast,180,2012-10-03 06:55:00
2:15 AM,58.5,58.5,100,29.93,7.0,South,8.1,-,N/A,,Overcast,180,2012-10-03 07:15:00
3:00 AM,57.2,57.2,100,29.93,7.0,South,8.1,-,N/A,,Overcast,190,2012-10-03 08:00:00
3:20 AM,57.2,57.2,100,29.93,7.0,South,6.9,-,N/A,,Overcast,190,2012-10-03 08:20:00
3:40 AM,57.2,57.2,100,29.93,7.0,South,5.8,-,N/A,,Overcast,190,2012-10-03 08:40:00
4:00 AM,57.2,57.2,100,29.94,7.0,South,6.9,-,N/A,,Overcast,190,2012-10-03 09:00:00
4:15 AM,58.1,58.1,100,29.95,7.0,South,6.9,-,N/A,,Overcast,190,2012-10-03 09:15:00
4:35 AM,58.1,58.1,100,29.96,5.0,South,6.9,-,N/A,,Overcast,170,2012-10-03 09:35:00
4:55 AM,58.1,58.1,100,29.97,5.0,South,8.1,-,N/A,,Overcast,170,2012-10-03 09:55:00
5:15 AM,58.1,58.1,100,29.97,2.5,South,9.2,-,N/A,,Drizzle,190,2012-10-03 10:15:00
5:35 AM,58.3,58.3,100,29.98,3.0,South,6.9,-,N/A,,Drizzle,190,2012-10-03 10:35:00
5:55 AM,58.3,58.3,100,29.98,7.0,SSW,6.9,-,N/A,,Overcast,200,2012-10-03 10:55:00
6:35 AM,58.3,58.3,100,30.00,7.0,SSW,6.9,-,N/A,,Overcast,200,2012-10-03 11:35:00
6:55 AM,58.3,58.3,100,30.01,7.0,South,5.8,-,N/A,,Overcast,190,2012-10-03 11:55:00
7:15 AM,58.3,58.3,100,30.01,5.0,SSE,5.8,-,N/A,,Overcast,150,2012-10-03 12:15:00
7:35 AM,58.5,58.5,100,30.02,4.0,SSE,5.8,-,N/A,,Overcast,160,2012-10-03 12:35:00
7:55 AM,58.8,58.8,100,30.03,5.0,SSE,5.8,-,N/A,,Overcast,160,2012-10-03 12:55:00
8:15 AM,59.4,59.4,100,30.03,7.0,South,5.8,-,N/A,,Overcast,190,2012-10-03 13:15:00
8:35 AM,60.1,59.7,99,30.03,10.0,South,8.1,-,N/A,,Overcast,180,2012-10-03 13:35:00
8:55 AM,60.8,59.4,95,30.04,10.0,South,6.9,-,N/A,,Overcast,190,2012-10-03 13:55:00
9:15 AM,61.0,59.4,94,30.05,10.0,South,5.8,-,N/A,,Overcast,180,2012-10-03 14:15:00
9:35 AM,61.7,59.4,92,30.06,10.0,South,6.9,-,N/A,,Overcast,190,2012-10-03 14:35:00
9:55 AM,62.6,59.7,90,30.06,10.0,South,5.8,-,N/A,,Overcast,180,2012-10-03 14:55:00
10:15 AM,63.5,59.9,88,30.06,10.0,South,6.9,-,N/A,,Overcast,170,2012-10-03 15:15:00
10:35 AM,64.9,60.1,84,30.06,10.0,South,5.8,-,N/A,,Overcast,180,2012-10-03 15:35:00
10:55 AM,66.4,59.9,80,30.05,10.0,South,6.9,-,N/A,,Overcast,180,2012-10-03 15:55:00
11:15 AM,68.0,57.0,68,30.05,10.0,South,4.6,-,N/A,,Overcast,170,2012-10-03 16:15:00
11:35 AM,68.9,57.4,67,30.05,10.0,SSE,6.9,-,N/A,,Overcast,160,2012-10-03 16:35:00
11:55 AM,70.0,56.5,62,30.05,10.0,South,8.1,-,N/A,,Mostly Cloudy,170,2012-10-03 16:55:00
12:15 PM,72.3,57.0,59,30.05,10.0,SSE,6.9,-,N/A,,Overcast,160,2012-10-03 17:15:00
12:35 PM,73.4,55.2,53,30.04,10.0,South,5.8,-,N/A,,Scattered Clouds,170,2012-10-03 17:35:00
12:55 PM,73.6,53.4,49,30.03,10.0,South,4.6,-,N/A,,Clear,190,2012-10-03 17:55:00
1:15 PM,75.2,53.8,47,30.02,10.0,South,9.2,-,N/A,,Scattered Clouds,170,2012-10-03 18:15:00
1:35 PM,75.9,51.4,42,30.02,10.0,South,6.9,16.1,N/A,,Scattered Clouds,190,2012-10-03 18:35:00
1:55 PM,76.5,52.0,42,30.01,10.0,South,11.5,-,N/A,,Clear,170,2012-10-03 18:55:00
2:15 PM,77.5,51.4,40,30.01,10.0,SSW,13.8,-,N/A,,Scattered Clouds,200,2012-10-03 19:15:00
2:35 PM,76.1,51.6,42,30.01,10.0,SSW,10.4,16.1,N/A,,Scattered Clouds,200,2012-10-03 19:35:00
2:55 PM,76.3,52.5,43,30.01,10.0,South,12.7,17.3,N/A,,Scattered Clouds,180,2012-10-03 19:55:00
3:15 PM,77.9,50.9,39,30.01,10.0,South,16.1,-,N/A,,Scattered Clouds,190,2012-10-03 20:15:00
3:35 PM,76.6,51.3,41,30.01,10.0,SSW,9.2,18.4,N/A,,Clear,210,2012-10-03 20:35:00
3:55 PM,76.6,52.5,43,30.01,10.0,SSW,9.2,-,N/A,,Scattered Clouds,200,2012-10-03 20:55:00
4:15 PM,77.5,52.9,42,30.01,10.0,SSW,9.2,-,N/A,,Mostly Cloudy,200,2012-10-03 21:15:00
4:35 PM,76.3,52.9,44,30.02,10.0,South,9.2,-,N/A,,Scattered Clouds,190,2012-10-03 21:35:00
4:55 PM,77.0,52.2,42,30.02,10.0,South,10.4,-,N/A,,Clear,190,2012-10-03 21:55:00
5:15 PM,74.1,52.0,46,30.02,10.0,South,9.2,-,N/A,,Clear,190,2012-10-03 22:15:00
5:35 PM,74.1,52.9,47,30.03,10.0,South,8.1,-,N/A,,Clear,180,2012-10-03 22:35:00
5:55 PM,73.2,53.1,49,30.03,10.0,South,5.8,-,N/A,,Clear,170,2012-10-03 22:55:00
6:15 PM,70.0,54.5,58,30.03,10.0,South,5.8,-,N/A,,Clear,170,2012-10-03 23:15:00
6:35 PM,67.1,54.5,64,30.04,10.0,SSE,5.8,-,N/A,,Clear,150,2012-10-03 23:35:00
6:55 PM,66.0,54.5,66,30.04,10.0,SSE,5.8,-,N/A,,Clear,150,2012-10-03 23:55:00
7:15 PM,64.4,54.9,71,30.05,10.0,SSE,5.8,-,N/A,,Clear,160,2012-10-04 00:15:00
7:35 PM,65.3,55.6,71,30.06,10.0,SSE,5.8,-,N/A,,Scattered Clouds,160,2012-10-04 00:35:00
7:55 PM,64.6,55.8,73,30.06,10.0,SSE,5.8,-,N/A,,Scattered Clouds,160,2012-10-04 00:55:00
8:15 PM,64.8,55.9,73,30.07,10.0,SSE,6.9,-,N/A,,Scattered Clouds,150,2012-10-04 01:15:00
8:35 PM,64.0,55.8,74,30.07,10.0,SSE,6.9,-,N/A,,Scattered Clouds,160,2012-10-04 01:35:00
8:55 PM,63.9,55.6,74,30.08,10.0,SSE,6.9,-,N/A,,Clear,160,2012-10-04 01:55:00
9:15 PM,65.5,55.4,70,30.09,10.0,South,9.2,-,N/A,,Scattered Clouds,180,2012-10-04 02:15:00
9:35 PM,67.1,55.0,65,30.09,10.0,South,12.7,16.1,N/A,Thunderstorm,Mostly Cloudy,190,2012-10-04 02:35:00
9:55 PM,66.4,54.5,66,30.10,10.0,South,8.1,-,N/A,,Mostly Cloudy,180,2012-10-04 02:55:00
10:15 PM,64.4,54.7,71,30.10,10.0,SSE,5.8,-,N/A,,Mostly Cloudy,160,2012-10-04 03:15:00
10:35 PM,64.0,54.7,72,30.11,10.0,South,4.6,-,N/A,,Mostly Cloudy,170,2012-10-04 03:35:00
10:55 PM,65.1,54.5,68,30.10,10.0,SSW,6.9,-,N/A,,Overcast,200,2012-10-04 03:55:00
11:15 PM,64.9,54.7,69,30.10,10.0,South,9.2,-,N/A,,Overcast,190,2012-10-04 04:15:00
11:35 PM,63.7,55.4,74,30.11,10.0,SSW,5.8,-,N/A,,Scattered Clouds,200,2012-10-04 04:35:00
11:55 PM,63.5,55.8,76,30.11,10.0,South,5.8,-,N/A,,Scattered Clouds,180,2012-10-04 04:55:00